Twin Bridges, CA

7:28 PM PDT on June 01, 2015 (GMT -0700)
Lake Tahoe | | Change Station
CLOSE
Current Station
Airport
Location: South Lake Tahoe,
Elevation: 6263 ft
Nearby Weather Stations
Active Advisory: Lake Wind Advisory

Elev 6263 ft 38.90 °N, 120.00 °W | Updated 35 minutes ago

Partly Cloudy
Partly Cloudy
60 °F
Feels Like 60 °F
N
12
Wind Variable Wind from SSW
Gusts 18 mph

Today
High -- | Low -- °F
--% Chance of Precip.
Yesterday
High -- | Low -- °F
Precip. -- in
5:36 AM 8:19 PM
Full, 100% visible
Pressure 29.96 in
Visibility 10.0 miles
Clouds Scattered Clouds 4800 ft
Mostly Cloudy 5500 ft
Dew Point 38 °F
Humidity 44%
Rainfall 0.00 in
Snow Depth Not available.
UV 1 out of 12
Pollen 7.00 out of 12
Air Quality Not available.
Flu Activity Sporadic
METAR KTVL 020153Z AUTO 20010G16KT 170V250 10SM SCT048 BKN055 16/03 A3010 RMK AO2 SLP144 T01560033

More Conditions Fewer Conditions

Pressure 29.96 in
Visibility 10.0 miles
Clouds Scattered Clouds 4800 ft
Mostly Cloudy 5500 ft
Dew Point 38 °F
Humidity 44%
Rainfall 0.00 in
Snow Depth Not available.
UV 1 out of 12
Pollen 7.00 out of 12
Air Quality Not available.
Flu Activity Sporadic
METAR KTVL 020153Z AUTO 20010G16KT 170V250 10SM SCT048 BKN055 16/03 A3010 RMK AO2 SLP144 T01560033

More Conditions Fewer Conditions

10-Day Weather Forecast

Almanac

Astronomy

Jun. 01, 2015 Rise Set
Actual Time
Civil Twilight
Nautical Twilight
Astronomical Twilight
Moon
Length of Visible Light
Length of Day
Tomorrow will be .
, % of the Moon is Illuminated

Today's Extremes

State Highs State Lows

Community

WunderPhotos

Upload Photos

1,825,858 photos uploaded!

WunderBlogs® & News

Nearby

Air Quality

  Air Quality AQ Index Pollutant
Not available.

Snow Depth

Station Depth Elevation

Earthquake Activity

City Distance Mag. Time & Date
Minimum magnitude displayed is 2.5.

Coastal Water Temperatures

Place Temperature

Stations

Nearby Weather Stations

Station Location Temp. Windchill Dew Point Humidity Wind Precip. Elev Updated Type
                   
Lake Wind Advisory
Statement as of 3:34 PM PDT on June 01, 2015

... Lake Wind Advisory remains in effect until 8 PM PDT this
evening...

A lake Wind Advisory remains in effect until 8 PM PDT this
evening.

* Winds: southwest to west 15 to 20 mph with gusts up to 35 mph.

* Wave heights on lake tahoe: 2 to 3 feet for mid lake to north
and east shores.

* Small boats will be prone to capsizing and should remain off
lake waters until conditions improve.

Precautionary/preparedness actions...

Check our website at weather.Gov/Reno or listen to NOAA Weather
Radio for updates on this situation.